Terminal Aerodrome Forecast
Issued by NWS

Home | Current Version | Previous Version | Text Only | Print | Product List | Glossary On
Versions: 1 2 3 4 5 6 7 8 9 10 11 12 13 14 15 16 17 18
000
FTUS44 KLZK 180457 AAB
TAFPBF
TAF AMD
KPBF 180457Z 1805/1824 19012G20KT P6SM SCT020 BKN050 WS020/21040KT
      TEMPO 1805/1808 BKN020
     FM180800 20012G20KT P6SM BKN020 OVC040 WS020/22040KT
     FM181500 23014G24KT P6SM VCSH OVC025
     FM182100 31015G25KT P6SM SCT035 BKN060=

USA.gov is the U.S. government's official web portal to all federal, state and local government web resources and services.